sensor_id;sensor_type;location;lat;lon;timestamp;P1;durP1;ratioP1;P2;durP2;ratioP2
18689;SDS011;9782;52.930;15.562;2022-10-28T00:02:10;59.97;;;33.40;;
18689;SDS011;9782;52.930;15.562;2022-10-28T00:04:37;58.00;;;32.93;;
18689;SDS011;9782;52.930;15.562;2022-10-28T00:07:04;49.17;;;30.27;;
18689;SDS011;9782;52.930;15.562;2022-10-28T00:09:33;54.80;;;32.10;;
18689;SDS011;9782;52.930;15.562;2022-10-28T00:12:00;57.03;;;32.80;;
18689;SDS011;9782;52.930;15.562;2022-10-28T00:14:27;59.77;;;33.47;;
18689;SDS011;9782;52.930;15.562;2022-10-28T00:16:54;59.63;;;34.30;;
18689;SDS011;9782;52.930;15.562;2022-10-28T00:19:21;62.17;;;33.97;;
18689;SDS011;9782;52.930;15.562;2022-10-28T00:21:48;59.17;;;32.47;;
18689;SDS011;9782;52.930;15.562;2022-10-28T00:24:15;64.80;;;34.37;;
18689;SDS011;9782;52.930;15.562;2022-10-28T00:26:43;53.73;;;31.87;;
18689;SDS011;9782;52.930;15.562;2022-10-28T00:29:12;58.03;;;33.53;;
18689;SDS011;9782;52.930;15.562;2022-10-28T00:31:40;56.73;;;32.90;;
18689;SDS011;9782;52.930;15.562;2022-10-28T00:34:08;64.80;;;34.63;;
18689;SDS011;9782;52.930;15.562;2022-10-28T00:36:38;64.33;;;34.57;;
18689;SDS011;9782;52.930;15.562;2022-10-28T00:39:08;59.50;;;33.40;;
18689;SDS011;9782;52.930;15.562;2022-10-28T00:41:42;56.77;;;33.27;;
18689;SDS011;9782;52.930;15.562;2022-10-28T00:47:19;58.57;;;34.03;;
18689;SDS011;9782;52.930;15.562;2022-10-28T00:50:00;62.87;;;35.00;;
18689;SDS011;9782;52.930;15.562;2022-10-28T00:52:33;62.83;;;33.47;;
18689;SDS011;9782;52.930;15.562;2022-10-28T00:55:00;64.07;;;34.40;;
18689;SDS011;9782;52.930;15.562;2022-10-28T00:57:32;61.53;;;34.27;;
18689;SDS011;9782;52.930;15.562;2022-10-28T01:00:03;55.60;;;34.77;;
18689;SDS011;9782;52.930;15.562;2022-10-28T01:02:31;64.07;;;34.93;;
18689;SDS011;9782;52.930;15.562;2022-10-28T01:05:03;57.17;;;33.87;;
18689;SDS011;9782;52.930;15.562;2022-10-28T01:07:30;58.90;;;33.40;;
18689;SDS011;9782;52.930;15.562;2022-10-28T01:09:57;60.77;;;33.60;;
18689;SDS011;9782;52.930;15.562;2022-10-28T01:12:26;58.47;;;34.00;;
18689;SDS011;9782;52.930;15.562;2022-10-28T01:15:08;58.33;;;33.50;;
18689;SDS011;9782;52.930;15.562;2022-10-28T01:17:43;55.30;;;32.93;;
18689;SDS011;9782;52.930;15.562;2022-10-28T01:23:25;58.63;;;34.87;;
18689;SDS011;9782;52.930;15.562;2022-10-28T01:26:07;60.27;;;34.60;;
18689;SDS011;9782;52.930;15.562;2022-10-28T01:29:05;52.63;;;32.20;;
18689;SDS011;9782;52.930;15.562;2022-10-28T01:31:57;54.67;;;33.67;;
18689;SDS011;9782;52.930;15.562;2022-10-28T01:34:29;58.20;;;33.87;;
18689;SDS011;9782;52.930;15.562;2022-10-28T01:36:59;64.30;;;35.40;;
18689;SDS011;9782;52.930;15.562;2022-10-28T01:39:36;63.67;;;35.43;;
18689;SDS011;9782;52.930;15.562;2022-10-28T01:42:13;59.90;;;34.27;;
18689;SDS011;9782;52.930;15.562;2022-10-28T01:44:47;64.87;;;35.33;;
18689;SDS011;9782;52.930;15.562;2022-10-28T01:47:21;58.57;;;34.87;;
18689;SDS011;9782;52.930;15.562;2022-10-28T01:49:52;65.63;;;36.20;;
18689;SDS011;9782;52.930;15.562;2022-10-28T01:52:23;58.57;;;35.87;;
18689;SDS011;9782;52.930;15.562;2022-10-28T01:54:56;61.63;;;34.73;;
18689;SDS011;9782;52.930;15.562;2022-10-28T01:57:27;66.40;;;35.63;;
18689;SDS011;9782;52.930;15.562;2022-10-28T01:59:56;64.60;;;35.67;;
18689;SDS011;9782;52.930;15.562;2022-10-28T02:02:28;58.67;;;34.73;;
18689;SDS011;9782;52.930;15.562;2022-10-28T02:05:04;62.00;;;35.77;;
18689;SDS011;9782;52.930;15.562;2022-10-28T02:07:53;58.53;;;35.77;;
18689;SDS011;9782;52.930;15.562;2022-10-28T02:10:25;66.87;;;35.60;;
18689;SDS011;9782;52.930;15.562;2022-10-28T02:13:01;63.40;;;36.20;;
18689;SDS011;9782;52.930;15.562;2022-10-28T02:15:35;66.50;;;34.97;;
18689;SDS011;9782;52.930;15.562;2022-10-28T02:18:17;65.60;;;35.53;;
18689;SDS011;9782;52.930;15.562;2022-10-28T02:20:52;64.77;;;36.47;;
18689;SDS011;9782;52.930;15.562;2022-10-28T02:23:26;60.87;;;34.80;;
18689;SDS011;9782;52.930;15.562;2022-10-28T02:26:05;77.77;;;37.33;;
18689;SDS011;9782;52.930;15.562;2022-10-28T02:28:38;74.23;;;37.67;;
18689;SDS011;9782;52.930;15.562;2022-10-28T02:31:09;72.47;;;36.60;;
18689;SDS011;9782;52.930;15.562;2022-10-28T02:33:50;68.30;;;37.37;;
18689;SDS011;9782;52.930;15.562;2022-10-28T02:36:21;71.00;;;36.67;;
18689;SDS011;9782;52.930;15.562;2022-10-28T02:38:51;71.67;;;38.87;;
18689;SDS011;9782;52.930;15.562;2022-10-28T02:41:21;81.20;;;39.53;;
18689;SDS011;9782;52.930;15.562;2022-10-28T02:43:53;79.63;;;39.30;;
18689;SDS011;9782;52.930;15.562;2022-10-28T02:46:23;82.23;;;41.93;;
18689;SDS011;9782;52.930;15.562;2022-10-28T02:48:54;84.30;;;43.27;;
18689;SDS011;9782;52.930;15.562;2022-10-28T02:51:27;77.53;;;42.30;;
18689;SDS011;9782;52.930;15.562;2022-10-28T02:53:59;85.40;;;40.53;;
18689;SDS011;9782;52.930;15.562;2022-10-28T02:56:30;74.83;;;38.47;;
18689;SDS011;9782;52.930;15.562;2022-10-28T02:59:02;76.83;;;39.53;;
18689;SDS011;9782;52.930;15.562;2022-10-28T03:01:33;72.23;;;38.97;;
18689;SDS011;9782;52.930;15.562;2022-10-28T03:04:02;78.07;;;39.17;;
18689;SDS011;9782;52.930;15.562;2022-10-28T03:06:29;75.73;;;38.57;;
18689;SDS011;9782;52.930;15.562;2022-10-28T03:08:56;74.73;;;38.57;;
18689;SDS011;9782;52.930;15.562;2022-10-28T03:11:23;89.03;;;39.90;;
18689;SDS011;9782;52.930;15.562;2022-10-28T03:13:50;82.53;;;39.50;;
18689;SDS011;9782;52.930;15.562;2022-10-28T03:16:17;82.17;;;38.43;;
18689;SDS011;9782;52.930;15.562;2022-10-28T03:18:44;77.70;;;38.10;;
18689;SDS011;9782;52.930;15.562;2022-10-28T03:21:13;81.07;;;38.70;;
18689;SDS011;9782;52.930;15.562;2022-10-28T03:23:40;75.90;;;38.03;;
18689;SDS011;9782;52.930;15.562;2022-10-28T03:26:07;86.17;;;39.27;;
18689;SDS011;9782;52.930;15.562;2022-10-28T03:28:34;77.27;;;38.30;;
18689;SDS011;9782;52.930;15.562;2022-10-28T03:31:01;76.37;;;40.97;;
18689;SDS011;9782;52.930;15.562;2022-10-28T03:33:28;82.93;;;42.13;;
18689;SDS011;9782;52.930;15.562;2022-10-28T03:35:55;73.93;;;39.50;;
18689;SDS011;9782;52.930;15.562;2022-10-28T03:38:24;74.17;;;37.80;;
18689;SDS011;9782;52.930;15.562;2022-10-28T03:40:51;84.33;;;40.47;;
18689;SDS011;9782;52.930;15.562;2022-10-28T03:43:18;79.50;;;39.07;;
18689;SDS011;9782;52.930;15.562;2022-10-28T03:45:46;81.80;;;39.63;;
18689;SDS011;9782;52.930;15.562;2022-10-28T03:48:13;80.57;;;40.40;;
18689;SDS011;9782;52.930;15.562;2022-10-28T03:50:40;78.17;;;38.30;;
18689;SDS011;9782;52.930;15.562;2022-10-28T03:53:07;83.43;;;39.63;;
18689;SDS011;9782;52.930;15.562;2022-10-28T03:55:36;83.97;;;42.00;;
18689;SDS011;9782;52.930;15.562;2022-10-28T03:58:03;90.53;;;43.80;;
18689;SDS011;9782;52.930;15.562;2022-10-28T04:00:30;105.60;;;49.97;;
18689;SDS011;9782;52.930;15.562;2022-10-28T04:02:57;83.63;;;42.77;;
18689;SDS011;9782;52.930;15.562;2022-10-28T04:05:24;72.20;;;37.97;;
18689;SDS011;9782;52.930;15.562;2022-10-28T04:07:51;88.50;;;39.97;;
18689;SDS011;9782;52.930;15.562;2022-10-28T04:10:19;78.73;;;38.40;;
18689;SDS011;9782;52.930;15.562;2022-10-28T04:12:47;74.07;;;36.93;;
18689;SDS011;9782;52.930;15.562;2022-10-28T04:15:14;83.70;;;38.07;;
18689;SDS011;9782;52.930;15.562;2022-10-28T04:17:41;76.00;;;37.00;;
18689;SDS011;9782;52.930;15.562;2022-10-28T04:20:09;90.20;;;38.87;;
18689;SDS011;9782;52.930;15.562;2022-10-28T04:22:36;81.93;;;38.07;;
18689;SDS011;9782;52.930;15.562;2022-10-28T04:25:03;75.07;;;37.00;;
18689;SDS011;9782;52.930;15.562;2022-10-28T04:27:31;80.03;;;37.97;;
18689;SDS011;9782;52.930;15.562;2022-10-28T04:29:59;77.97;;;38.40;;
18689;SDS011;9782;52.930;15.562;2022-10-28T04:32:26;74.60;;;38.80;;
18689;SDS011;9782;52.930;15.562;2022-10-28T04:34:53;77.93;;;37.90;;
18689;SDS011;9782;52.930;15.562;2022-10-28T04:37:20;80.20;;;37.87;;
18689;SDS011;9782;52.930;15.562;2022-10-28T04:39:47;70.63;;;37.03;;
18689;SDS011;9782;52.930;15.562;2022-10-28T04:42:14;78.67;;;38.43;;
18689;SDS011;9782;52.930;15.562;2022-10-28T04:44:41;72.60;;;37.20;;
18689;SDS011;9782;52.930;15.562;2022-10-28T04:47:10;76.30;;;37.77;;
18689;SDS011;9782;52.930;15.562;2022-10-28T04:49:37;80.17;;;38.43;;
18689;SDS011;9782;52.930;15.562;2022-10-28T04:52:04;80.97;;;39.63;;
18689;SDS011;9782;52.930;15.562;2022-10-28T04:54:31;71.50;;;36.73;;
18689;SDS011;9782;52.930;15.562;2022-10-28T04:56:58;73.37;;;36.87;;
18689;SDS011;9782;52.930;15.562;2022-10-28T04:59:25;84.40;;;39.70;;
18689;SDS011;9782;52.930;15.562;2022-10-28T05:01:52;84.40;;;38.87;;
18689;SDS011;9782;52.930;15.562;2022-10-28T05:04:20;79.20;;;38.87;;
18689;SDS011;9782;52.930;15.562;2022-10-28T05:06:47;84.20;;;40.67;;
18689;SDS011;9782;52.930;15.562;2022-10-28T05:09:14;89.47;;;40.47;;
18689;SDS011;9782;52.930;15.562;2022-10-28T05:11:41;83.60;;;40.17;;
18689;SDS011;9782;52.930;15.562;2022-10-28T05:14:08;89.10;;;41.33;;
18689;SDS011;9782;52.930;15.562;2022-10-28T05:16:35;86.93;;;40.73;;
18689;SDS011;9782;52.930;15.562;2022-10-28T05:19:02;85.07;;;42.57;;
18689;SDS011;9782;52.930;15.562;2022-10-28T05:21:31;85.37;;;41.07;;
18689;SDS011;9782;52.930;15.562;2022-10-28T05:23:58;74.43;;;39.47;;
18689;SDS011;9782;52.930;15.562;2022-10-28T05:26:26;78.70;;;39.17;;
18689;SDS011;9782;52.930;15.562;2022-10-28T05:28:53;82.47;;;39.63;;
18689;SDS011;9782;52.930;15.562;2022-10-28T05:31:20;79.90;;;39.00;;
18689;SDS011;9782;52.930;15.562;2022-10-28T05:33:47;87.23;;;41.90;;
18689;SDS011;9782;52.930;15.562;2022-10-28T05:36:14;97.50;;;42.67;;
18689;SDS011;9782;52.930;15.562;2022-10-28T05:38:42;84.50;;;41.07;;
18689;SDS011;9782;52.930;15.562;2022-10-28T05:41:09;75.10;;;38.23;;
18689;SDS011;9782;52.930;15.562;2022-10-28T05:43:36;85.87;;;40.03;;
18689;SDS011;9782;52.930;15.562;2022-10-28T05:46:03;80.70;;;37.27;;
18689;SDS011;9782;52.930;15.562;2022-10-28T05:48:30;80.13;;;37.80;;
18689;SDS011;9782;52.930;15.562;2022-10-28T05:50:57;83.07;;;38.97;;
18689;SDS011;9782;52.930;15.562;2022-10-28T05:53:24;90.40;;;41.20;;
18689;SDS011;9782;52.930;15.562;2022-10-28T05:55:53;80.37;;;39.20;;
18689;SDS011;9782;52.930;15.562;2022-10-28T05:58:20;92.23;;;40.77;;
18689;SDS011;9782;52.930;15.562;2022-10-28T06:00:47;113.83;;;51.83;;
18689;SDS011;9782;52.930;15.562;2022-10-28T06:03:14;78.83;;;37.87;;
18689;SDS011;9782;52.930;15.562;2022-10-28T06:05:42;90.13;;;39.33;;
18689;SDS011;9782;52.930;15.562;2022-10-28T06:08:09;101.83;;;41.97;;
18689;SDS011;9782;52.930;15.562;2022-10-28T06:10:38;86.53;;;38.30;;
18689;SDS011;9782;52.930;15.562;2022-10-28T06:13:06;94.97;;;39.10;;
18689;SDS011;9782;52.930;15.562;2022-10-28T06:15:34;92.60;;;38.67;;
18689;SDS011;9782;52.930;15.562;2022-10-28T06:18:01;121.17;;;51.13;;
18689;SDS011;9782;52.930;15.562;2022-10-28T06:20:28;102.83;;;42.40;;
18689;SDS011;9782;52.930;15.562;2022-10-28T06:22:55;70.50;;;37.20;;
18689;SDS011;9782;52.930;15.562;2022-10-28T06:25:23;78.77;;;42.93;;
18689;SDS011;9782;52.930;15.562;2022-10-28T06:27:53;93.40;;;43.40;;
18689;SDS011;9782;52.930;15.562;2022-10-28T06:30:33;83.03;;;39.33;;
18689;SDS011;9782;52.930;15.562;2022-10-28T06:33:00;94.50;;;39.10;;
18689;SDS011;9782;52.930;15.562;2022-10-28T06:35:27;83.37;;;39.17;;
18689;SDS011;9782;52.930;15.562;2022-10-28T06:37:55;217.33;;;108.77;;
18689;SDS011;9782;52.930;15.562;2022-10-28T06:40:22;152.07;;;71.17;;
18689;SDS011;9782;52.930;15.562;2022-10-28T06:42:55;107.97;;;50.77;;
18689;SDS011;9782;52.930;15.562;2022-10-28T06:45:22;97.07;;;41.53;;
18689;SDS011;9782;52.930;15.562;2022-10-28T06:47:54;102.90;;;41.47;;
18689;SDS011;9782;52.930;15.562;2022-10-28T06:50:22;81.63;;;37.00;;
18689;SDS011;9782;52.930;15.562;2022-10-28T06:52:49;82.30;;;39.73;;
18689;SDS011;9782;52.930;15.562;2022-10-28T06:55:16;65.93;;;35.80;;
18689;SDS011;9782;52.930;15.562;2022-10-28T06:57:43;60.63;;;35.50;;
18689;SDS011;9782;52.930;15.562;2022-10-28T07:00:11;62.73;;;34.80;;
18689;SDS011;9782;52.930;15.562;2022-10-28T07:02:39;68.97;;;39.67;;
18689;SDS011;9782;52.930;15.562;2022-10-28T07:05:08;59.67;;;33.97;;
18689;SDS011;9782;52.930;15.562;2022-10-28T07:07:35;65.03;;;40.20;;
18689;SDS011;9782;52.930;15.562;2022-10-28T07:10:02;51.63;;;31.97;;
18689;SDS011;9782;52.930;15.562;2022-10-28T07:12:30;51.30;;;30.80;;
18689;SDS011;9782;52.930;15.562;2022-10-28T07:14:57;58.13;;;34.67;;
18689;SDS011;9782;52.930;15.562;2022-10-28T07:17:24;63.17;;;37.93;;
18689;SDS011;9782;52.930;15.562;2022-10-28T07:19:52;56.17;;;33.10;;
18689;SDS011;9782;52.930;15.562;2022-10-28T07:27:03;46.93;;;28.07;;
18689;SDS011;9782;52.930;15.562;2022-10-28T07:29:32;46.10;;;27.70;;
18689;SDS011;9782;52.930;15.562;2022-10-28T07:31:59;48.70;;;30.00;;
18689;SDS011;9782;52.930;15.562;2022-10-28T07:34:28;60.70;;;32.70;;
18689;SDS011;9782;52.930;15.562;2022-10-28T07:37:28;40.13;;;26.40;;
18689;SDS011;9782;52.930;15.562;2022-10-28T07:40:12;40.60;;;25.50;;
18689;SDS011;9782;52.930;15.562;2022-10-28T07:42:40;41.40;;;27.63;;
18689;SDS011;9782;52.930;15.562;2022-10-28T07:45:07;39.67;;;27.50;;
18689;SDS011;9782;52.930;15.562;2022-10-28T07:47:35;34.90;;;23.77;;
18689;SDS011;9782;52.930;15.562;2022-10-28T07:50:02;33.87;;;23.77;;
18689;SDS011;9782;52.930;15.562;2022-10-28T07:52:29;37.23;;;24.20;;
18689;SDS011;9782;52.930;15.562;2022-10-28T07:54:57;36.90;;;23.67;;
18689;SDS011;9782;52.930;15.562;2022-10-28T07:57:24;32.83;;;23.13;;
18689;SDS011;9782;52.930;15.562;2022-10-28T07:59:52;37.30;;;24.60;;
18689;SDS011;9782;52.930;15.562;2022-10-28T08:02:21;35.00;;;24.13;;
18689;SDS011;9782;52.930;15.562;2022-10-28T08:04:49;37.83;;;26.93;;
18689;SDS011;9782;52.930;15.562;2022-10-28T08:07:17;30.08;;;22.70;;
18689;SDS011;9782;52.930;15.562;2022-10-28T08:09:44;29.25;;;22.60;;
18689;SDS011;9782;52.930;15.562;2022-10-28T08:12:11;28.45;;;22.10;;
18689;SDS011;9782;52.930;15.562;2022-10-28T08:14:39;28.75;;;21.98;;
18689;SDS011;9782;52.930;15.562;2022-10-28T08:17:08;27.33;;;21.38;;
18689;SDS011;9782;52.930;15.562;2022-10-28T08:19:35;25.10;;;18.95;;
18689;SDS011;9782;52.930;15.562;2022-10-28T08:22:03;24.73;;;19.58;;
18689;SDS011;9782;52.930;15.562;2022-10-28T08:24:30;24.17;;;18.30;;
18689;SDS011;9782;52.930;15.562;2022-10-28T08:26:57;24.83;;;18.50;;
18689;SDS011;9782;52.930;15.562;2022-10-28T08:29:27;24.40;;;17.30;;
18689;SDS011;9782;52.930;15.562;2022-10-28T08:32:42;21.35;;;16.60;;
18689;SDS011;9782;52.930;15.562;2022-10-28T08:35:09;18.50;;;15.48;;
18689;SDS011;9782;52.930;15.562;2022-10-28T08:37:36;19.88;;;15.43;;
18689;SDS011;9782;52.930;15.562;2022-10-28T08:40:04;20.58;;;15.88;;
18689;SDS011;9782;52.930;15.562;2022-10-28T08:42:34;17.98;;;15.63;;
18689;SDS011;9782;52.930;15.562;2022-10-28T08:45:13;21.30;;;16.40;;
18689;SDS011;9782;52.930;15.562;2022-10-28T08:47:51;25.95;;;20.27;;
18689;SDS011;9782;52.930;15.562;2022-10-28T08:50:29;20.48;;;15.30;;
18689;SDS011;9782;52.930;15.562;2022-10-28T08:52:58;17.27;;;14.27;;
18689;SDS011;9782;52.930;15.562;2022-10-28T08:55:29;16.95;;;13.93;;
18689;SDS011;9782;52.930;15.562;2022-10-28T08:58:01;16.88;;;13.85;;
18689;SDS011;9782;52.930;15.562;2022-10-28T09:00:33;18.98;;;15.38;;
18689;SDS011;9782;52.930;15.562;2022-10-28T09:03:13;17.88;;;14.57;;
18689;SDS011;9782;52.930;15.562;2022-10-28T09:05:47;18.20;;;14.93;;
18689;SDS011;9782;52.930;15.562;2022-10-28T09:08:20;22.67;;;15.15;;
18689;SDS011;9782;52.930;15.562;2022-10-28T09:13:49;17.63;;;15.05;;
18689;SDS011;9782;52.930;15.562;2022-10-28T09:16:35;18.58;;;14.65;;
18689;SDS011;9782;52.930;15.562;2022-10-28T09:19:14;18.75;;;13.98;;
18689;SDS011;9782;52.930;15.562;2022-10-28T09:21:47;21.17;;;15.38;;
18689;SDS011;9782;52.930;15.562;2022-10-28T09:24:18;21.55;;;16.05;;
18689;SDS011;9782;52.930;15.562;2022-10-28T09:26:49;20.00;;;13.50;;
18689;SDS011;9782;52.930;15.562;2022-10-28T09:29:32;21.85;;;13.88;;
18689;SDS011;9782;52.930;15.562;2022-10-28T09:32:09;17.58;;;13.20;;
18689;SDS011;9782;52.930;15.562;2022-10-28T09:34:44;19.98;;;14.68;;
18689;SDS011;9782;52.930;15.562;2022-10-28T09:37:16;20.70;;;15.00;;
18689;SDS011;9782;52.930;15.562;2022-10-28T09:39:46;21.23;;;13.32;;
18689;SDS011;9782;52.930;15.562;2022-10-28T09:42:17;16.30;;;13.13;;
18689;SDS011;9782;52.930;15.562;2022-10-28T09:44:48;18.45;;;13.13;;
18689;SDS011;9782;52.930;15.562;2022-10-28T09:47:19;17.55;;;12.57;;
18689;SDS011;9782;52.930;15.562;2022-10-28T09:49:50;15.80;;;14.07;;
18689;SDS011;9782;52.930;15.562;2022-10-28T09:52:21;17.23;;;14.02;;
18689;SDS011;9782;52.930;15.562;2022-10-28T09:54:52;16.10;;;12.88;;
18689;SDS011;9782;52.930;15.562;2022-10-28T09:57:20;20.63;;;12.27;;
18689;SDS011;9782;52.930;15.562;2022-10-28T09:59:50;16.55;;;11.70;;
18689;SDS011;9782;52.930;15.562;2022-10-28T10:02:23;14.50;;;12.95;;
18689;SDS011;9782;52.930;15.562;2022-10-28T10:04:55;39.47;;;28.98;;
18689;SDS011;9782;52.930;15.562;2022-10-28T10:07:33;26.90;;;18.60;;
18689;SDS011;9782;52.930;15.562;2022-10-28T10:10:03;18.63;;;15.27;;
18689;SDS011;9782;52.930;15.562;2022-10-28T10:12:37;29.90;;;22.67;;
18689;SDS011;9782;52.930;15.562;2022-10-28T10:15:05;19.05;;;16.73;;
18689;SDS011;9782;52.930;15.562;2022-10-28T10:17:38;25.52;;;18.83;;
18689;SDS011;9782;52.930;15.562;2022-10-28T10:20:10;17.77;;;15.80;;
18689;SDS011;9782;52.930;15.562;2022-10-28T10:22:39;17.45;;;14.43;;
18689;SDS011;9782;52.930;15.562;2022-10-28T10:25:20;21.38;;;14.15;;
18689;SDS011;9782;52.930;15.562;2022-10-28T10:27:54;16.52;;;12.95;;
18689;SDS011;9782;52.930;15.562;2022-10-28T10:30:25;17.23;;;12.13;;
18689;SDS011;9782;52.930;15.562;2022-10-28T10:32:54;16.23;;;12.40;;
18689;SDS011;9782;52.930;15.562;2022-10-28T10:35:25;16.48;;;12.77;;
18689;SDS011;9782;52.930;15.562;2022-10-28T10:37:54;17.92;;;12.23;;
18689;SDS011;9782;52.930;15.562;2022-10-28T10:40:23;16.23;;;12.13;;
18689;SDS011;9782;52.930;15.562;2022-10-28T10:42:55;16.33;;;11.57;;
18689;SDS011;9782;52.930;15.562;2022-10-28T10:45:39;12.63;;;10.80;;
18689;SDS011;9782;52.930;15.562;2022-10-28T10:48:11;14.25;;;9.45;;
18689;SDS011;9782;52.930;15.562;2022-10-28T10:50:41;10.98;;;8.77;;
18689;SDS011;9782;52.930;15.562;2022-10-28T10:53:18;12.55;;;8.45;;
18689;SDS011;9782;52.930;15.562;2022-10-28T10:55:48;14.90;;;9.38;;
18689;SDS011;9782;52.930;15.562;2022-10-28T10:58:17;12.23;;;8.55;;
18689;SDS011;9782;52.930;15.562;2022-10-28T11:00:47;11.80;;;9.15;;
18689;SDS011;9782;52.930;15.562;2022-10-28T11:03:17;13.85;;;10.43;;
18689;SDS011;9782;52.930;15.562;2022-10-28T11:05:50;9.77;;;8.02;;
18689;SDS011;9782;52.930;15.562;2022-10-28T11:08:33;11.85;;;8.10;;
18689;SDS011;9782;52.930;15.562;2022-10-28T11:11:12;13.10;;;10.05;;
18689;SDS011;9782;52.930;15.562;2022-10-28T11:13:44;13.25;;;8.77;;
18689;SDS011;9782;52.930;15.562;2022-10-28T11:16:19;12.23;;;9.82;;
18689;SDS011;9782;52.930;15.562;2022-10-28T11:18:47;14.05;;;9.88;;
18689;SDS011;9782;52.930;15.562;2022-10-28T11:24:20;15.05;;;11.85;;
18689;SDS011;9782;52.930;15.562;2022-10-28T11:27:02;14.85;;;11.52;;
18689;SDS011;9782;52.930;15.562;2022-10-28T11:29:36;14.98;;;8.68;;
18689;SDS011;9782;52.930;15.562;2022-10-28T11:32:10;13.57;;;7.88;;
18689;SDS011;9782;52.930;15.562;2022-10-28T11:34:46;16.27;;;9.95;;
18689;SDS011;9782;52.930;15.562;2022-10-28T11:37:32;13.23;;;8.38;;
18689;SDS011;9782;52.930;15.562;2022-10-28T11:40:16;10.93;;;8.18;;
18689;SDS011;9782;52.930;15.562;2022-10-28T11:42:58;15.93;;;12.88;;
18689;SDS011;9782;52.930;15.562;2022-10-28T11:45:33;10.75;;;8.45;;
18689;SDS011;9782;52.930;15.562;2022-10-28T11:48:12;18.40;;;10.30;;
18689;SDS011;9782;52.930;15.562;2022-10-28T11:50:52;12.63;;;8.77;;
18689;SDS011;9782;52.930;15.562;2022-10-28T11:56:32;12.05;;;8.05;;
18689;SDS011;9782;52.930;15.562;2022-10-28T11:59:14;10.68;;;7.22;;
18689;SDS011;9782;52.930;15.562;2022-10-28T12:01:57;10.10;;;7.18;;
18689;SDS011;9782;52.930;15.562;2022-10-28T12:04:37;13.05;;;7.40;;
18689;SDS011;9782;52.930;15.562;2022-10-28T12:07:21;11.68;;;7.70;;
18689;SDS011;9782;52.930;15.562;2022-10-28T12:10:06;17.58;;;8.20;;
18689;SDS011;9782;52.930;15.562;2022-10-28T12:12:51;12.85;;;7.78;;
18689;SDS011;9782;52.930;15.562;2022-10-28T12:15:25;32.70;;;9.45;;
18689;SDS011;9782;52.930;15.562;2022-10-28T12:18:06;15.35;;;8.52;;
18689;SDS011;9782;52.930;15.562;2022-10-28T12:20:39;13.45;;;8.05;;
18689;SDS011;9782;52.930;15.562;2022-10-28T12:23:12;17.08;;;7.93;;
18689;SDS011;9782;52.930;15.562;2022-10-28T12:25:44;18.27;;;8.05;;
18689;SDS011;9782;52.930;15.562;2022-10-28T12:28:15;11.82;;;7.55;;
18689;SDS011;9782;52.930;15.562;2022-10-28T12:30:46;16.20;;;7.55;;
18689;SDS011;9782;52.930;15.562;2022-10-28T12:33:18;13.63;;;8.05;;
18689;SDS011;9782;52.930;15.562;2022-10-28T12:35:49;13.32;;;7.55;;
18689;SDS011;9782;52.930;15.562;2022-10-28T12:38:22;10.00;;;7.03;;
18689;SDS011;9782;52.930;15.562;2022-10-28T12:40:54;10.65;;;7.18;;
18689;SDS011;9782;52.930;15.562;2022-10-28T12:43:31;10.02;;;8.23;;
18689;SDS011;9782;52.930;15.562;2022-10-28T12:46:03;15.55;;;7.90;;
18689;SDS011;9782;52.930;15.562;2022-10-28T12:48:37;15.70;;;7.65;;
18689;SDS011;9782;52.930;15.562;2022-10-28T12:51:10;14.43;;;7.75;;
18689;SDS011;9782;52.930;15.562;2022-10-28T12:53:43;14.32;;;8.00;;
18689;SDS011;9782;52.930;15.562;2022-10-28T12:56:21;16.55;;;8.10;;
18689;SDS011;9782;52.930;15.562;2022-10-28T12:58:53;17.98;;;8.07;;
18689;SDS011;9782;52.930;15.562;2022-10-28T13:01:27;23.88;;;8.98;;
18689;SDS011;9782;52.930;15.562;2022-10-28T13:03:56;16.45;;;8.88;;
18689;SDS011;9782;52.930;15.562;2022-10-28T13:06:33;15.75;;;8.77;;
18689;SDS011;9782;52.930;15.562;2022-10-28T13:09:25;15.32;;;9.52;;
18689;SDS011;9782;52.930;15.562;2022-10-28T13:18:22;14.50;;;8.55;;
18689;SDS011;9782;52.930;15.562;2022-10-28T13:21:25;15.35;;;9.30;;
18689;SDS011;9782;52.930;15.562;2022-10-28T13:23:58;18.33;;;11.23;;
18689;SDS011;9782;52.930;15.562;2022-10-28T13:26:34;19.63;;;10.38;;
18689;SDS011;9782;52.930;15.562;2022-10-28T13:29:06;13.18;;;7.70;;
18689;SDS011;9782;52.930;15.562;2022-10-28T13:31:45;14.90;;;7.32;;
18689;SDS011;9782;52.930;15.562;2022-10-28T13:34:17;12.52;;;7.38;;
18689;SDS011;9782;52.930;15.562;2022-10-28T13:36:53;14.77;;;8.07;;
18689;SDS011;9782;52.930;15.562;2022-10-28T13:39:24;17.60;;;9.68;;
18689;SDS011;9782;52.930;15.562;2022-10-28T13:44:57;11.10;;;7.38;;
18689;SDS011;9782;52.930;15.562;2022-10-28T13:47:28;10.68;;;7.47;;
18689;SDS011;9782;52.930;15.562;2022-10-28T13:56:13;15.65;;;10.15;;
18689;SDS011;9782;52.930;15.562;2022-10-28T13:59:19;15.13;;;7.80;;
18689;SDS011;9782;52.930;15.562;2022-10-28T14:02:01;15.45;;;7.47;;
18689;SDS011;9782;52.930;15.562;2022-10-28T14:07:32;13.95;;;7.72;;
18689;SDS011;9782;52.930;15.562;2022-10-28T14:10:20;15.02;;;9.15;;
18689;SDS011;9782;52.930;15.562;2022-10-28T14:13:04;16.13;;;10.23;;
18689;SDS011;9782;52.930;15.562;2022-10-28T14:15:42;14.50;;;8.90;;
18689;SDS011;9782;52.930;15.562;2022-10-28T14:18:19;13.38;;;8.77;;
18689;SDS011;9782;52.930;15.562;2022-10-28T14:20:56;16.02;;;10.65;;
18689;SDS011;9782;52.930;15.562;2022-10-28T14:29:45;13.88;;;8.40;;
18689;SDS011;9782;52.930;15.562;2022-10-28T14:35:18;14.77;;;8.25;;
18689;SDS011;9782;52.930;15.562;2022-10-28T14:38:07;14.27;;;7.85;;
18689;SDS011;9782;52.930;15.562;2022-10-28T14:41:09;15.80;;;9.68;;
18689;SDS011;9782;52.930;15.562;2022-10-28T14:43:53;18.23;;;10.60;;
18689;SDS011;9782;52.930;15.562;2022-10-28T14:46:32;13.70;;;8.85;;
18689;SDS011;9782;52.930;15.562;2022-10-28T14:49:13;16.67;;;10.45;;
18689;SDS011;9782;52.930;15.562;2022-10-28T14:51:45;20.58;;;10.82;;
18689;SDS011;9782;52.930;15.562;2022-10-28T14:54:16;14.07;;;8.93;;
18689;SDS011;9782;52.930;15.562;2022-10-28T14:56:46;17.10;;;9.57;;
18689;SDS011;9782;52.930;15.562;2022-10-28T14:59:24;19.58;;;11.68;;
18689;SDS011;9782;52.930;15.562;2022-10-28T15:01:58;23.42;;;11.80;;
18689;SDS011;9782;52.930;15.562;2022-10-28T15:04:27;16.25;;;10.35;;
18689;SDS011;9782;52.930;15.562;2022-10-28T15:06:55;20.70;;;11.30;;
18689;SDS011;9782;52.930;15.562;2022-10-28T15:09:24;16.08;;;9.90;;
18689;SDS011;9782;52.930;15.562;2022-10-28T15:11:54;13.20;;;9.77;;
18689;SDS011;9782;52.930;15.562;2022-10-28T15:14:28;16.05;;;10.18;;
18689;SDS011;9782;52.930;15.562;2022-10-28T15:16:57;13.10;;;10.13;;
18689;SDS011;9782;52.930;15.562;2022-10-28T15:19:25;16.48;;;10.60;;
18689;SDS011;9782;52.930;15.562;2022-10-28T15:21:59;13.57;;;10.45;;
18689;SDS011;9782;52.930;15.562;2022-10-28T15:24:29;15.98;;;9.88;;
18689;SDS011;9782;52.930;15.562;2022-10-28T15:26:56;22.38;;;10.82;;
18689;SDS011;9782;52.930;15.562;2022-10-28T15:29:24;16.17;;;10.48;;
18689;SDS011;9782;52.930;15.562;2022-10-28T15:32:09;15.35;;;9.98;;
18689;SDS011;9782;52.930;15.562;2022-10-28T15:34:38;21.98;;;15.38;;
18689;SDS011;9782;52.930;15.562;2022-10-28T15:37:06;34.10;;;29.63;;
18689;SDS011;9782;52.930;15.562;2022-10-28T15:39:35;34.65;;;30.65;;